sensor_id;sensor_type;location;lat;lon;timestamp;temperature;humidity
12125;DHT22;6126;57.908;16.490;2022-07-01T00:00:37;20.10;91.50
12125;DHT22;6126;57.908;16.490;2022-07-01T00:03:03;20.10;91.50
12125;DHT22;6126;57.908;16.490;2022-07-01T00:05:30;20.10;91.50
12125;DHT22;6126;57.908;16.490;2022-07-01T00:07:56;20.10;91.50
12125;DHT22;6126;57.908;16.490;2022-07-01T00:10:22;20.10;91.50
12125;DHT22;6126;57.908;16.490;2022-07-01T00:12:48;20.10;91.50
12125;DHT22;6126;57.908;16.490;2022-07-01T00:15:14;20.20;91.60
12125;DHT22;6126;57.908;16.490;2022-07-01T00:17:40;20.10;91.50
12125;DHT22;6126;57.908;16.490;2022-07-01T00:20:06;20.20;91.60
12125;DHT22;6126;57.908;16.490;2022-07-01T00:22:33;20.20;91.60
12125;DHT22;6126;57.908;16.490;2022-07-01T00:25:00;20.20;91.60
12125;DHT22;6126;57.908;16.490;2022-07-01T00:27:26;20.20;91.50
12125;DHT22;6126;57.908;16.490;2022-07-01T00:29:52;20.20;91.50
12125;DHT22;6126;57.908;16.490;2022-07-01T00:32:18;20.10;91.50
12125;DHT22;6126;57.908;16.490;2022-07-01T00:34:44;20.10;91.60
12125;DHT22;6126;57.908;16.490;2022-07-01T00:37:10;20.00;91.50
12125;DHT22;6126;57.908;16.490;2022-07-01T00:39:36;20.00;91.50
12125;DHT22;6126;57.908;16.490;2022-07-01T00:42:03;19.90;91.60
12125;DHT22;6126;57.908;16.490;2022-07-01T00:44:30;19.80;91.60
12125;DHT22;6126;57.908;16.490;2022-07-01T00:47:00;19.70;91.70
12125;DHT22;6126;57.908;16.490;2022-07-01T00:49:29;19.60;91.70
12125;DHT22;6126;57.908;16.490;2022-07-01T00:51:56;19.60;91.80
12125;DHT22;6126;57.908;16.490;2022-07-01T00:54:23;19.50;91.90
12125;DHT22;6126;57.908;16.490;2022-07-01T00:56:50;19.50;91.90
12125;DHT22;6126;57.908;16.490;2022-07-01T00:59:15;19.50;92.00
12125;DHT22;6126;57.908;16.490;2022-07-01T01:01:42;19.50;92.10
12125;DHT22;6126;57.908;16.490;2022-07-01T01:04:08;19.50;92.00
12125;DHT22;6126;57.908;16.490;2022-07-01T01:06:34;19.50;92.10
12125;DHT22;6126;57.908;16.490;2022-07-01T01:09:00;19.50;92.10
12125;DHT22;6126;57.908;16.490;2022-07-01T01:11:26;19.50;92.10
12125;DHT22;6126;57.908;16.490;2022-07-01T01:13:52;19.50;92.10
12125;DHT22;6126;57.908;16.490;2022-07-01T01:16:20;19.50;92.10
12125;DHT22;6126;57.908;16.490;2022-07-01T01:18:48;19.50;92.10
12125;DHT22;6126;57.908;16.490;2022-07-01T01:21:15;19.50;92.10
12125;DHT22;6126;57.908;16.490;2022-07-01T01:23:41;19.40;92.10
12125;DHT22;6126;57.908;16.490;2022-07-01T01:26:20;19.40;92.20
12125;DHT22;6126;57.908;16.490;2022-07-01T01:28:48;19.40;92.30
12125;DHT22;6126;57.908;16.490;2022-07-01T01:31:15;19.30;92.20
12125;DHT22;6126;57.908;16.490;2022-07-01T01:33:41;19.30;92.30
12125;DHT22;6126;57.908;16.490;2022-07-01T01:36:07;19.30;92.40
12125;DHT22;6126;57.908;16.490;2022-07-01T01:38:34;19.20;92.40
12125;DHT22;6126;57.908;16.490;2022-07-01T01:41:05;19.20;92.40
12125;DHT22;6126;57.908;16.490;2022-07-01T01:43:31;19.20;92.40
12125;DHT22;6126;57.908;16.490;2022-07-01T01:46:01;19.20;92.50
12125;DHT22;6126;57.908;16.490;2022-07-01T01:48:29;19.20;92.50
12125;DHT22;6126;57.908;16.490;2022-07-01T01:50:55;19.20;92.50
12125;DHT22;6126;57.908;16.490;2022-07-01T01:53:21;19.20;92.50
12125;DHT22;6126;57.908;16.490;2022-07-01T01:55:48;19.20;92.60
12125;DHT22;6126;57.908;16.490;2022-07-01T01:58:13;19.20;92.60
12125;DHT22;6126;57.908;16.490;2022-07-01T02:00:39;19.20;92.60
12125;DHT22;6126;57.908;16.490;2022-07-01T02:03:05;19.20;92.60
12125;DHT22;6126;57.908;16.490;2022-07-01T02:05:31;19.20;92.60
12125;DHT22;6126;57.908;16.490;2022-07-01T02:07:57;19.20;92.60
12125;DHT22;6126;57.908;16.490;2022-07-01T02:10:23;19.20;92.70
12125;DHT22;6126;57.908;16.490;2022-07-01T02:12:49;19.20;92.70
12125;DHT22;6126;57.908;16.490;2022-07-01T02:15:15;19.20;92.70
12125;DHT22;6126;57.908;16.490;2022-07-01T02:17:41;19.20;92.70
12125;DHT22;6126;57.908;16.490;2022-07-01T02:20:07;19.20;92.80
12125;DHT22;6126;57.908;16.490;2022-07-01T02:22:34;19.20;92.80
12125;DHT22;6126;57.908;16.490;2022-07-01T02:25:00;19.20;92.90
12125;DHT22;6126;57.908;16.490;2022-07-01T02:27:26;19.20;92.90
12125;DHT22;6126;57.908;16.490;2022-07-01T02:29:52;19.30;92.90
12125;DHT22;6126;57.908;16.490;2022-07-01T02:32:17;19.30;92.90
12125;DHT22;6126;57.908;16.490;2022-07-01T02:34:44;19.30;92.90
12125;DHT22;6126;57.908;16.490;2022-07-01T02:37:10;19.30;92.90
12125;DHT22;6126;57.908;16.490;2022-07-01T02:39:36;19.30;92.90
12125;DHT22;6126;57.908;16.490;2022-07-01T02:42:02;19.20;92.80
12125;DHT22;6126;57.908;16.490;2022-07-01T02:44:46;19.20;92.90
12125;DHT22;6126;57.908;16.490;2022-07-01T02:47:12;19.30;93.00
12125;DHT22;6126;57.908;16.490;2022-07-01T02:49:38;19.30;93.00
12125;DHT22;6126;57.908;16.490;2022-07-01T02:52:05;19.30;93.00
12125;DHT22;6126;57.908;16.490;2022-07-01T02:54:31;19.30;93.00
12125;DHT22;6126;57.908;16.490;2022-07-01T02:56:57;19.30;93.00
12125;DHT22;6126;57.908;16.490;2022-07-01T02:59:23;19.40;93.10
12125;DHT22;6126;57.908;16.490;2022-07-01T03:01:49;19.30;93.00
12125;DHT22;6126;57.908;16.490;2022-07-01T03:04:15;19.30;93.00
12125;DHT22;6126;57.908;16.490;2022-07-01T03:06:41;19.30;93.10
12125;DHT22;6126;57.908;16.490;2022-07-01T03:09:07;19.40;93.10
12125;DHT22;6126;57.908;16.490;2022-07-01T03:11:33;19.40;93.10
12125;DHT22;6126;57.908;16.490;2022-07-01T03:13:58;19.30;93.10
12125;DHT22;6126;57.908;16.490;2022-07-01T03:16:24;19.30;93.10
12125;DHT22;6126;57.908;16.490;2022-07-01T03:18:50;19.30;93.20
12125;DHT22;6126;57.908;16.490;2022-07-01T03:21:16;19.30;93.20
12125;DHT22;6126;57.908;16.490;2022-07-01T03:23:42;19.30;93.20
12125;DHT22;6126;57.908;16.490;2022-07-01T03:26:08;19.30;93.20
12125;DHT22;6126;57.908;16.490;2022-07-01T03:28:33;19.30;93.20
12125;DHT22;6126;57.908;16.490;2022-07-01T03:31:00;19.30;93.20
12125;DHT22;6126;57.908;16.490;2022-07-01T03:33:27;19.30;93.20
12125;DHT22;6126;57.908;16.490;2022-07-01T03:35:53;19.30;93.20
12125;DHT22;6126;57.908;16.490;2022-07-01T03:38:19;19.30;93.30
12125;DHT22;6126;57.908;16.490;2022-07-01T03:40:45;19.30;93.30
12125;DHT22;6126;57.908;16.490;2022-07-01T03:43:10;19.30;93.40
12125;DHT22;6126;57.908;16.490;2022-07-01T03:45:36;19.30;93.40
12125;DHT22;6126;57.908;16.490;2022-07-01T03:48:02;19.30;93.40
12125;DHT22;6126;57.908;16.490;2022-07-01T03:50:28;19.30;93.40
12125;DHT22;6126;57.908;16.490;2022-07-01T03:52:54;19.30;93.40
12125;DHT22;6126;57.908;16.490;2022-07-01T03:55:39;19.40;93.40
12125;DHT22;6126;57.908;16.490;2022-07-01T03:58:05;19.40;93.50
12125;DHT22;6126;57.908;16.490;2022-07-01T04:00:35;19.50;93.50
12125;DHT22;6126;57.908;16.490;2022-07-01T04:03:04;19.60;93.50
12125;DHT22;6126;57.908;16.490;2022-07-01T04:05:35;19.60;93.50
12125;DHT22;6126;57.908;16.490;2022-07-01T04:08:06;19.60;93.40
12125;DHT22;6126;57.908;16.490;2022-07-01T04:10:34;19.70;93.50
12125;DHT22;6126;57.908;16.490;2022-07-01T04:13:01;19.70;93.40
12125;DHT22;6126;57.908;16.490;2022-07-01T04:15:28;19.80;93.40
12125;DHT22;6126;57.908;16.490;2022-07-01T04:17:56;19.80;93.40
12125;DHT22;6126;57.908;16.490;2022-07-01T04:20:22;19.80;93.40
12125;DHT22;6126;57.908;16.490;2022-07-01T04:22:48;19.90;93.40
12125;DHT22;6126;57.908;16.490;2022-07-01T04:25:14;19.90;93.40
12125;DHT22;6126;57.908;16.490;2022-07-01T04:27:40;19.90;93.40
12125;DHT22;6126;57.908;16.490;2022-07-01T04:30:07;19.90;93.40
12125;DHT22;6126;57.908;16.490;2022-07-01T04:32:33;19.90;93.40
12125;DHT22;6126;57.908;16.490;2022-07-01T04:34:59;19.90;93.40
12125;DHT22;6126;57.908;16.490;2022-07-01T04:37:25;20.00;93.40
12125;DHT22;6126;57.908;16.490;2022-07-01T04:39:51;20.00;93.40
12125;DHT22;6126;57.908;16.490;2022-07-01T04:42:17;20.00;93.40
12125;DHT22;6126;57.908;16.490;2022-07-01T04:44:46;20.00;93.40
12125;DHT22;6126;57.908;16.490;2022-07-01T04:47:12;20.00;93.80
12125;DHT22;6126;57.908;16.490;2022-07-01T04:49:38;20.00;93.40
12125;DHT22;6126;57.908;16.490;2022-07-01T04:52:03;20.10;93.40
12125;DHT22;6126;57.908;16.490;2022-07-01T04:54:29;20.10;93.40
12125;DHT22;6126;57.908;16.490;2022-07-01T04:56:55;20.10;93.40
12125;DHT22;6126;57.908;16.490;2022-07-01T04:59:21;20.10;93.40
12125;DHT22;6126;57.908;16.490;2022-07-01T05:01:47;20.10;93.40
12125;DHT22;6126;57.908;16.490;2022-07-01T05:04:18;20.20;93.40
12125;DHT22;6126;57.908;16.490;2022-07-01T05:06:44;20.20;93.40
12125;DHT22;6126;57.908;16.490;2022-07-01T05:09:11;20.30;93.40
12125;DHT22;6126;57.908;16.490;2022-07-01T05:11:38;20.40;93.40
12125;DHT22;6126;57.908;16.490;2022-07-01T05:14:05;20.40;93.30
12125;DHT22;6126;57.908;16.490;2022-07-01T05:16:32;20.50;93.30
12125;DHT22;6126;57.908;16.490;2022-07-01T05:18:59;20.50;93.30
12125;DHT22;6126;57.908;16.490;2022-07-01T05:21:43;20.60;93.30
12125;DHT22;6126;57.908;16.490;2022-07-01T05:24:22;20.70;93.30
12125;DHT22;6126;57.908;16.490;2022-07-01T05:26:52;20.70;93.10
12125;DHT22;6126;57.908;16.490;2022-07-01T05:29:19;20.80;93.10
12125;DHT22;6126;57.908;16.490;2022-07-01T05:31:44;20.90;93.10
12125;DHT22;6126;57.908;16.490;2022-07-01T05:34:11;21.00;93.40
12125;DHT22;6126;57.908;16.490;2022-07-01T05:36:37;21.00;92.90
12125;DHT22;6126;57.908;16.490;2022-07-01T05:39:03;21.10;92.90
12125;DHT22;6126;57.908;16.490;2022-07-01T05:41:29;21.10;92.80
12125;DHT22;6126;57.908;16.490;2022-07-01T05:43:55;21.20;92.80
12125;DHT22;6126;57.908;16.490;2022-07-01T05:46:21;21.20;92.70
12125;DHT22;6126;57.908;16.490;2022-07-01T05:48:47;21.20;92.70
12125;DHT22;6126;57.908;16.490;2022-07-01T05:51:13;21.30;92.70
12125;DHT22;6126;57.908;16.490;2022-07-01T05:53:39;21.40;92.60
12125;DHT22;6126;57.908;16.490;2022-07-01T05:56:05;21.40;92.50
12125;DHT22;6126;57.908;16.490;2022-07-01T05:58:31;21.50;92.40
12125;DHT22;6126;57.908;16.490;2022-07-01T06:00:57;21.60;92.40
12125;DHT22;6126;57.908;16.490;2022-07-01T06:03:23;21.60;92.30
12125;DHT22;6126;57.908;16.490;2022-07-01T06:05:48;21.60;92.20
12125;DHT22;6126;57.908;16.490;2022-07-01T06:08:14;21.60;92.20
12125;DHT22;6126;57.908;16.490;2022-07-01T06:10:40;21.70;92.10
12125;DHT22;6126;57.908;16.490;2022-07-01T06:13:06;21.70;92.10
12125;DHT22;6126;57.908;16.490;2022-07-01T06:15:32;21.80;92.10
12125;DHT22;6126;57.908;16.490;2022-07-01T06:17:58;21.80;91.90
12125;DHT22;6126;57.908;16.490;2022-07-01T06:20:24;21.80;91.80
12125;DHT22;6126;57.908;16.490;2022-07-01T06:22:50;21.80;91.80
12125;DHT22;6126;57.908;16.490;2022-07-01T06:25:16;21.90;91.90
12125;DHT22;6126;57.908;16.490;2022-07-01T06:27:43;21.90;91.80
12125;DHT22;6126;57.908;16.490;2022-07-01T06:30:11;21.90;91.80
12125;DHT22;6126;57.908;16.490;2022-07-01T06:32:38;21.90;91.70
12125;DHT22;6126;57.908;16.490;2022-07-01T06:35:04;22.00;91.60
12125;DHT22;6126;57.908;16.490;2022-07-01T06:37:31;22.10;91.60
12125;DHT22;6126;57.908;16.490;2022-07-01T06:40:00;22.20;91.50
12125;DHT22;6126;57.908;16.490;2022-07-01T06:42:26;22.30;91.40
12125;DHT22;6126;57.908;16.490;2022-07-01T06:44:52;22.30;91.30
12125;DHT22;6126;57.908;16.490;2022-07-01T06:47:18;22.30;91.20
12125;DHT22;6126;57.908;16.490;2022-07-01T06:49:44;22.40;91.20
12125;DHT22;6126;57.908;16.490;2022-07-01T06:52:10;22.40;91.10
12125;DHT22;6126;57.908;16.490;2022-07-01T06:54:36;22.30;91.00
12125;DHT22;6126;57.908;16.490;2022-07-01T06:57:03;22.20;91.00
12125;DHT22;6126;57.908;16.490;2022-07-01T06:59:30;22.20;91.00
12125;DHT22;6126;57.908;16.490;2022-07-01T07:01:56;22.20;91.10
12125;DHT22;6126;57.908;16.490;2022-07-01T07:04:22;22.20;91.10
12125;DHT22;6126;57.908;16.490;2022-07-01T07:06:48;22.20;91.10
12125;DHT22;6126;57.908;16.490;2022-07-01T07:09:14;22.10;91.10
12125;DHT22;6126;57.908;16.490;2022-07-01T07:11:40;22.20;91.40
12125;DHT22;6126;57.908;16.490;2022-07-01T07:14:05;22.10;91.00
12125;DHT22;6126;57.908;16.490;2022-07-01T07:16:31;22.10;90.90
12125;DHT22;6126;57.908;16.490;2022-07-01T07:18:57;22.10;91.00
12125;DHT22;6126;57.908;16.490;2022-07-01T07:21:23;22.10;91.00
12125;DHT22;6126;57.908;16.490;2022-07-01T07:23:49;22.00;90.90
12125;DHT22;6126;57.908;16.490;2022-07-01T07:26:15;22.00;90.90
12125;DHT22;6126;57.908;16.490;2022-07-01T07:28:41;22.00;90.90
12125;DHT22;6126;57.908;16.490;2022-07-01T07:31:07;22.00;91.00
12125;DHT22;6126;57.908;16.490;2022-07-01T07:33:33;22.00;90.90
12125;DHT22;6126;57.908;16.490;2022-07-01T07:35:59;22.00;90.90
12125;DHT22;6126;57.908;16.490;2022-07-01T07:38:25;22.00;90.90
12125;DHT22;6126;57.908;16.490;2022-07-01T07:40:51;22.10;90.90
12125;DHT22;6126;57.908;16.490;2022-07-01T07:43:17;22.10;90.80
12125;DHT22;6126;57.908;16.490;2022-07-01T07:45:43;22.30;90.90
12125;DHT22;6126;57.908;16.490;2022-07-01T07:48:09;22.50;90.80
12125;DHT22;6126;57.908;16.490;2022-07-01T07:50:35;22.80;90.70
12125;DHT22;6126;57.908;16.490;2022-07-01T07:53:02;23.00;90.30
12125;DHT22;6126;57.908;16.490;2022-07-01T07:55:28;23.20;90.20
12125;DHT22;6126;57.908;16.490;2022-07-01T07:57:54;23.40;89.90
12125;DHT22;6126;57.908;16.490;2022-07-01T08:00:20;23.50;89.50
12125;DHT22;6126;57.908;16.490;2022-07-01T08:02:46;23.60;89.20
12125;DHT22;6126;57.908;16.490;2022-07-01T08:05:12;23.50;89.00
12125;DHT22;6126;57.908;16.490;2022-07-01T08:07:40;23.40;89.00
12125;DHT22;6126;57.908;16.490;2022-07-01T08:10:10;23.40;89.30
12125;DHT22;6126;57.908;16.490;2022-07-01T08:12:37;23.30;90.00
12125;DHT22;6126;57.908;16.490;2022-07-01T08:15:05;23.40;89.30
12125;DHT22;6126;57.908;16.490;2022-07-01T08:17:32;23.50;89.20
12125;DHT22;6126;57.908;16.490;2022-07-01T08:19:58;23.50;88.90
12125;DHT22;6126;57.908;16.490;2022-07-01T08:22:24;23.50;88.80
12125;DHT22;6126;57.908;16.490;2022-07-01T08:24:50;23.70;89.00
12125;DHT22;6126;57.908;16.490;2022-07-01T08:27:16;23.70;88.50
12125;DHT22;6126;57.908;16.490;2022-07-01T08:29:42;23.90;88.40
12125;DHT22;6126;57.908;16.490;2022-07-01T08:32:08;24.00;88.00
12125;DHT22;6126;57.908;16.490;2022-07-01T08:34:35;24.20;87.60
12125;DHT22;6126;57.908;16.490;2022-07-01T08:37:02;24.30;87.30
12125;DHT22;6126;57.908;16.490;2022-07-01T08:39:29;24.40;86.90
12125;DHT22;6126;57.908;16.490;2022-07-01T08:41:55;24.60;86.80
12125;DHT22;6126;57.908;16.490;2022-07-01T08:44:22;24.60;86.30
12125;DHT22;6126;57.908;16.490;2022-07-01T08:46:48;24.80;86.10
12125;DHT22;6126;57.908;16.490;2022-07-01T08:49:16;25.00;85.90
12125;DHT22;6126;57.908;16.490;2022-07-01T08:51:42;25.10;85.40
12125;DHT22;6126;57.908;16.490;2022-07-01T08:54:08;25.30;85.10
12125;DHT22;6126;57.908;16.490;2022-07-01T08:56:34;25.40;84.60
12125;DHT22;6126;57.908;16.490;2022-07-01T08:59:06;25.50;84.20
12125;DHT22;6126;57.908;16.490;2022-07-01T09:01:37;25.60;83.80
12125;DHT22;6126;57.908;16.490;2022-07-01T09:04:17;25.60;83.60
12125;DHT22;6126;57.908;16.490;2022-07-01T09:06:47;25.70;83.40
12125;DHT22;6126;57.908;16.490;2022-07-01T09:09:16;25.70;83.20
12125;DHT22;6126;57.908;16.490;2022-07-01T09:11:55;25.80;83.00
12125;DHT22;6126;57.908;16.490;2022-07-01T09:17:00;26.00;82.50
12125;DHT22;6126;57.908;16.490;2022-07-01T09:19:32;26.00;82.00
12125;DHT22;6126;57.908;16.490;2022-07-01T09:22:02;26.00;81.90
12125;DHT22;6126;57.908;16.490;2022-07-01T09:27:10;25.80;82.00
12125;DHT22;6126;57.908;16.490;2022-07-01T09:29:50;25.70;82.00
12125;DHT22;6126;57.908;16.490;2022-07-01T09:32:18;25.50;82.10
12125;DHT22;6126;57.908;16.490;2022-07-01T09:34:46;25.40;82.40
12125;DHT22;6126;57.908;16.490;2022-07-01T09:37:21;25.30;82.60
12125;DHT22;6126;57.908;16.490;2022-07-01T09:39:53;25.20;82.60
12125;DHT22;6126;57.908;16.490;2022-07-01T09:42:22;25.10;82.60
12125;DHT22;6126;57.908;16.490;2022-07-01T09:45:00;25.10;82.60
12125;DHT22;6126;57.908;16.490;2022-07-01T09:47:31;25.10;82.60
12125;DHT22;6126;57.908;16.490;2022-07-01T09:49:59;25.10;82.50
12125;DHT22;6126;57.908;16.490;2022-07-01T09:52:26;25.20;82.30
12125;DHT22;6126;57.908;16.490;2022-07-01T09:54:53;25.30;81.90
12125;DHT22;6126;57.908;16.490;2022-07-01T09:57:21;25.50;81.40
12125;DHT22;6126;57.908;16.490;2022-07-01T09:59:51;25.50;81.10
12125;DHT22;6126;57.908;16.490;2022-07-01T10:02:21;25.50;81.80
12125;DHT22;6126;57.908;16.490;2022-07-01T10:05:04;25.50;80.90
12125;DHT22;6126;57.908;16.490;2022-07-01T10:08:32;25.60;80.80
12125;DHT22;6126;57.908;16.490;2022-07-01T10:14:10;25.80;80.30
12125;DHT22;6126;57.908;16.490;2022-07-01T10:16:38;25.80;80.00
12125;DHT22;6126;57.908;16.490;2022-07-01T10:19:29;25.90;79.90
12125;DHT22;6126;57.908;16.490;2022-07-01T10:22:01;26.00;79.60
12125;DHT22;6126;57.908;16.490;2022-07-01T10:24:50;26.00;79.30
12125;DHT22;6126;57.908;16.490;2022-07-01T10:27:24;26.10;79.90
12125;DHT22;6126;57.908;16.490;2022-07-01T10:30:12;26.20;78.90
12125;DHT22;6126;57.908;16.490;2022-07-01T10:32:47;26.20;78.60
12125;DHT22;6126;57.908;16.490;2022-07-01T10:35:14;26.20;78.50
12125;DHT22;6126;57.908;16.490;2022-07-01T10:38:04;26.20;78.40
12125;DHT22;6126;57.908;16.490;2022-07-01T10:40:43;26.20;78.40
12125;DHT22;6126;57.908;16.490;2022-07-01T10:43:15;26.20;78.10
12125;DHT22;6126;57.908;16.490;2022-07-01T10:45:46;26.30;78.10
12125;DHT22;6126;57.908;16.490;2022-07-01T10:48:23;26.30;78.00
12125;DHT22;6126;57.908;16.490;2022-07-01T10:50:50;26.40;77.90
12125;DHT22;6126;57.908;16.490;2022-07-01T10:53:18;26.40;77.70
12125;DHT22;6126;57.908;16.490;2022-07-01T10:55:46;26.40;77.50
12125;DHT22;6126;57.908;16.490;2022-07-01T10:58:14;26.40;77.30
12125;DHT22;6126;57.908;16.490;2022-07-01T11:00:45;26.50;77.30
12125;DHT22;6126;57.908;16.490;2022-07-01T11:03:18;26.50;77.00
12125;DHT22;6126;57.908;16.490;2022-07-01T11:05:48;26.60;76.80
12125;DHT22;6126;57.908;16.490;2022-07-01T11:08:17;26.60;77.50
12125;DHT22;6126;57.908;16.490;2022-07-01T11:10:44;26.70;76.50
12125;DHT22;6126;57.908;16.490;2022-07-01T11:13:13;26.70;76.30
12125;DHT22;6126;57.908;16.490;2022-07-01T11:15:40;26.80;76.10
12125;DHT22;6126;57.908;16.490;2022-07-01T11:18:07;26.80;76.00
12125;DHT22;6126;57.908;16.490;2022-07-01T11:20:33;26.90;75.80
12125;DHT22;6126;57.908;16.490;2022-07-01T11:23:00;26.90;75.80
12125;DHT22;6126;57.908;16.490;2022-07-01T11:25:26;26.90;75.50
12125;DHT22;6126;57.908;16.490;2022-07-01T11:27:52;27.00;75.40
12125;DHT22;6126;57.908;16.490;2022-07-01T11:30:20;27.00;75.20
12125;DHT22;6126;57.908;16.490;2022-07-01T11:32:49;27.00;75.00
12125;DHT22;6126;57.908;16.490;2022-07-01T11:35:25;27.10;75.00
12125;DHT22;6126;57.908;16.490;2022-07-01T11:38:16;27.20;74.80
12125;DHT22;6126;57.908;16.490;2022-07-01T11:41:04;27.20;74.50
12125;DHT22;6126;57.908;16.490;2022-07-01T11:43:34;27.20;74.30
12125;DHT22;6126;57.908;16.490;2022-07-01T11:46:03;27.20;74.20
12125;DHT22;6126;57.908;16.490;2022-07-01T11:48:54;27.20;74.10
12125;DHT22;6126;57.908;16.490;2022-07-01T11:51:22;27.20;74.00
12125;DHT22;6126;57.908;16.490;2022-07-01T11:53:54;27.30;74.00
12125;DHT22;6126;57.908;16.490;2022-07-01T11:56:35;27.30;73.90
12125;DHT22;6126;57.908;16.490;2022-07-01T11:59:04;27.30;73.80
12125;DHT22;6126;57.908;16.490;2022-07-01T12:01:32;27.30;73.80
12125;DHT22;6126;57.908;16.490;2022-07-01T12:04:05;27.30;73.60
12125;DHT22;6126;57.908;16.490;2022-07-01T12:06:36;27.30;73.60
12125;DHT22;6126;57.908;16.490;2022-07-01T12:09:15;27.30;73.40
12125;DHT22;6126;57.908;16.490;2022-07-01T12:11:50;27.20;73.40
12125;DHT22;6126;57.908;16.490;2022-07-01T12:14:49;27.20;73.30
12125;DHT22;6126;57.908;16.490;2022-07-01T12:17:16;27.20;73.30
12125;DHT22;6126;57.908;16.490;2022-07-01T12:19:44;27.20;73.20
12125;DHT22;6126;57.908;16.490;2022-07-01T12:22:26;27.20;73.20
12125;DHT22;6126;57.908;16.490;2022-07-01T12:25:13;27.20;73.00
12125;DHT22;6126;57.908;16.490;2022-07-01T12:27:41;27.20;72.80
12125;DHT22;6126;57.908;16.490;2022-07-01T12:30:10;27.20;72.80
12125;DHT22;6126;57.908;16.490;2022-07-01T12:32:39;27.20;72.60
12125;DHT22;6126;57.908;16.490;2022-07-01T12:35:09;27.20;72.50
12125;DHT22;6126;57.908;16.490;2022-07-01T12:37:55;27.20;72.30
12125;DHT22;6126;57.908;16.490;2022-07-01T12:40:26;27.30;72.10
12125;DHT22;6126;57.908;16.490;2022-07-01T12:42:55;27.30;71.90
12125;DHT22;6126;57.908;16.490;2022-07-01T12:45:25;27.40;71.80
12125;DHT22;6126;57.908;16.490;2022-07-01T12:47:54;27.40;71.70
12125;DHT22;6126;57.908;16.490;2022-07-01T12:50:31;27.40;71.60
12125;DHT22;6126;57.908;16.490;2022-07-01T12:58:14;27.10;72.00
12125;DHT22;6126;57.908;16.490;2022-07-01T13:00:47;27.00;72.40
12125;DHT22;6126;57.908;16.490;2022-07-01T13:03:22;27.00;72.40
12125;DHT22;6126;57.908;16.490;2022-07-01T13:05:50;26.90;72.50
12125;DHT22;6126;57.908;16.490;2022-07-01T13:08:17;27.00;72.50
12125;DHT22;6126;57.908;16.490;2022-07-01T13:10:45;27.00;72.40
12125;DHT22;6126;57.908;16.490;2022-07-01T13:13:12;27.10;72.40
12125;DHT22;6126;57.908;16.490;2022-07-01T13:15:40;27.10;72.30
12125;DHT22;6126;57.908;16.490;2022-07-01T13:18:06;27.10;72.20
12125;DHT22;6126;57.908;16.490;2022-07-01T13:20:34;27.10;72.20
12125;DHT22;6126;57.908;16.490;2022-07-01T13:23:00;27.10;72.30
12125;DHT22;6126;57.908;16.490;2022-07-01T13:25:26;27.10;72.40
12125;DHT22;6126;57.908;16.490;2022-07-01T13:27:52;27.00;72.40
12125;DHT22;6126;57.908;16.490;2022-07-01T13:30:19;27.00;72.60
12125;DHT22;6126;57.908;16.490;2022-07-01T13:32:45;26.90;72.60
12125;DHT22;6126;57.908;16.490;2022-07-01T13:35:12;26.90;72.70
12125;DHT22;6126;57.908;16.490;2022-07-01T13:37:40;26.90;72.80
12125;DHT22;6126;57.908;16.490;2022-07-01T13:40:08;26.80;72.80
12125;DHT22;6126;57.908;16.490;2022-07-01T13:42:35;26.80;72.80
12125;DHT22;6126;57.908;16.490;2022-07-01T13:45:02;26.80;72.80
12125;DHT22;6126;57.908;16.490;2022-07-01T13:47:29;26.80;72.80
12125;DHT22;6126;57.908;16.490;2022-07-01T13:49:55;26.80;72.90
12125;DHT22;6126;57.908;16.490;2022-07-01T13:52:21;26.80;73.10
12125;DHT22;6126;57.908;16.490;2022-07-01T13:54:47;26.70;73.10
12125;DHT22;6126;57.908;16.490;2022-07-01T13:57:14;26.60;73.10
12125;DHT22;6126;57.908;16.490;2022-07-01T13:59:40;26.60;73.20
12125;DHT22;6126;57.908;16.490;2022-07-01T14:02:07;26.60;73.30
12125;DHT22;6126;57.908;16.490;2022-07-01T14:04:33;26.60;73.40
12125;DHT22;6126;57.908;16.490;2022-07-01T14:06:59;26.50;73.30
12125;DHT22;6126;57.908;16.490;2022-07-01T14:09:25;26.50;73.40
12125;DHT22;6126;57.908;16.490;2022-07-01T14:11:51;26.40;73.50
12125;DHT22;6126;57.908;16.490;2022-07-01T14:14:17;26.40;73.60
12125;DHT22;6126;57.908;16.490;2022-07-01T14:16:43;26.40;73.70
12125;DHT22;6126;57.908;16.490;2022-07-01T14:19:09;26.40;73.70
12125;DHT22;6126;57.908;16.490;2022-07-01T14:21:35;26.40;73.60
12125;DHT22;6126;57.908;16.490;2022-07-01T14:24:03;26.30;73.70
12125;DHT22;6126;57.908;16.490;2022-07-01T14:26:30;26.40;73.80
12125;DHT22;6126;57.908;16.490;2022-07-01T14:28:56;26.30;73.80
12125;DHT22;6126;57.908;16.490;2022-07-01T14:31:22;26.30;73.80
12125;DHT22;6126;57.908;16.490;2022-07-01T14:33:47;26.20;73.90
12125;DHT22;6126;57.908;16.490;2022-07-01T14:36:14;26.20;74.00
12125;DHT22;6126;57.908;16.490;2022-07-01T14:38:40;26.20;74.10
12125;DHT22;6126;57.908;16.490;2022-07-01T14:41:05;26.20;74.10
12125;DHT22;6126;57.908;16.490;2022-07-01T14:43:31;26.20;74.30
12125;DHT22;6126;57.908;16.490;2022-07-01T14:45:59;26.20;74.40
12125;DHT22;6126;57.908;16.490;2022-07-01T14:48:26;26.20;74.40
12125;DHT22;6126;57.908;16.490;2022-07-01T14:50:52;26.10;74.30
12125;DHT22;6126;57.908;16.490;2022-07-01T14:53:18;26.10;74.40
12125;DHT22;6126;57.908;16.490;2022-07-01T14:55:44;26.10;74.40
12125;DHT22;6126;57.908;16.490;2022-07-01T14:58:11;26.10;74.40
12125;DHT22;6126;57.908;16.490;2022-07-01T15:00:37;26.10;74.40
12125;DHT22;6126;57.908;16.490;2022-07-01T15:03:04;26.10;74.40
12125;DHT22;6126;57.908;16.490;2022-07-01T15:05:30;26.10;74.50
12125;DHT22;6126;57.908;16.490;2022-07-01T15:07:58;26.00;74.60
12125;DHT22;6126;57.908;16.490;2022-07-01T15:10:24;26.00;74.80
12125;DHT22;6126;57.908;16.490;2022-07-01T15:12:50;26.00;74.90
12125;DHT22;6126;57.908;16.490;2022-07-01T15:15:17;25.90;75.10
12125;DHT22;6126;57.908;16.490;2022-07-01T15:17:44;25.90;75.10
12125;DHT22;6126;57.908;16.490;2022-07-01T15:20:12;25.80;76.00
12125;DHT22;6126;57.908;16.490;2022-07-01T15:22:39;25.80;75.20
12125;DHT22;6126;57.908;16.490;2022-07-01T15:25:06;25.80;75.30
12125;DHT22;6126;57.908;16.490;2022-07-01T15:27:32;25.90;75.50
12125;DHT22;6126;57.908;16.490;2022-07-01T15:29:58;25.80;75.40
12125;DHT22;6126;57.908;16.490;2022-07-01T15:32:24;25.80;75.50
12125;DHT22;6126;57.908;16.490;2022-07-01T15:34:50;25.80;75.50
12125;DHT22;6126;57.908;16.490;2022-07-01T15:37:16;25.80;75.60
12125;DHT22;6126;57.908;16.490;2022-07-01T15:39:42;25.80;75.70
12125;DHT22;6126;57.908;16.490;2022-07-01T15:42:07;25.80;75.80
12125;DHT22;6126;57.908;16.490;2022-07-01T15:44:34;25.70;75.80
12125;DHT22;6126;57.908;16.490;2022-07-01T15:47:00;25.80;75.80
12125;DHT22;6126;57.908;16.490;2022-07-01T15:49:46;25.70;75.80